sensor_id;sensor_type;location;lat;lon;timestamp;temperature;humidity
3998;DHT22;61314;53.444;9.902;2023-04-25T01:23:09;7.10;99.90
3998;DHT22;61314;53.444;9.902;2023-04-25T01:25:36;7.10;99.90
3998;DHT22;61314;53.444;9.902;2023-04-25T01:28:04;7.10;99.90
3998;DHT22;61314;53.444;9.902;2023-04-25T01:30:31;7.10;99.90
3998;DHT22;61314;53.444;9.902;2023-04-25T01:32:59;7.00;99.90
3998;DHT22;61314;53.444;9.902;2023-04-25T01:35:26;7.00;99.90
3998;DHT22;61314;53.444;9.902;2023-04-25T01:37:53;7.20;99.90
3998;DHT22;61314;53.444;9.902;2023-04-25T01:40:21;7.10;99.90
3998;DHT22;61314;53.444;9.902;2023-04-25T01:42:48;7.10;99.90
3998;DHT22;61314;53.444;9.902;2023-04-25T01:50:13;7.10;99.90
3998;DHT22;61314;53.444;9.902;2023-04-25T01:52:39;7.00;99.90
3998;DHT22;61314;53.444;9.902;2023-04-25T01:55:06;7.00;99.90
3998;DHT22;61314;53.444;9.902;2023-04-25T01:57:33;6.90;99.90
3998;DHT22;61314;53.444;9.902;2023-04-25T02:00:02;6.90;99.90
3998;DHT22;61314;53.444;9.902;2023-04-25T02:02:30;6.70;99.90
3998;DHT22;61314;53.444;9.902;2023-04-25T02:04:56;6.80;99.90
3998;DHT22;61314;53.444;9.902;2023-04-25T02:07:23;6.80;99.90
3998;DHT22;61314;53.444;9.902;2023-04-25T02:12:17;6.70;99.90
3998;DHT22;61314;53.444;9.902;2023-04-25T02:14:43;6.70;99.90
3998;DHT22;61314;53.444;9.902;2023-04-25T02:17:10;6.70;99.90
3998;DHT22;61314;53.444;9.902;2023-04-25T02:22:06;6.60;99.90
3998;DHT22;61314;53.444;9.902;2023-04-25T02:27:01;6.50;99.90
3998;DHT22;61314;53.444;9.902;2023-04-25T02:34:23;6.40;99.90
3998;DHT22;61314;53.444;9.902;2023-04-25T02:36:49;6.40;99.90
3998;DHT22;61314;53.444;9.902;2023-04-25T02:39:18;6.40;99.90
3998;DHT22;61314;53.444;9.902;2023-04-25T02:44:12;6.30;99.90
3998;DHT22;61314;53.444;9.902;2023-04-25T02:46:38;6.30;99.90
3998;DHT22;61314;53.444;9.902;2023-04-25T02:49:06;6.30;99.90
3998;DHT22;61314;53.444;9.902;2023-04-25T02:51:32;6.30;99.90
3998;DHT22;61314;53.444;9.902;2023-04-25T02:53:59;6.30;99.90
3998;DHT22;61314;53.444;9.902;2023-04-25T02:56:26;6.40;99.90
3998;DHT22;61314;53.444;9.902;2023-04-25T03:01:20;6.20;99.90
3998;DHT22;61314;53.444;9.902;2023-04-25T03:03:47;6.20;99.90
3998;DHT22;61314;53.444;9.902;2023-04-25T03:06:15;6.20;99.90
3998;DHT22;61314;53.444;9.902;2023-04-25T03:08:42;6.10;99.90
3998;DHT22;61314;53.444;9.902;2023-04-25T03:11:09;6.10;99.90
3998;DHT22;61314;53.444;9.902;2023-04-25T03:13:36;6.10;99.90
3998;DHT22;61314;53.444;9.902;2023-04-25T03:16:02;6.10;99.90
3998;DHT22;61314;53.444;9.902;2023-04-25T03:20:56;6.00;99.90
3998;DHT22;61314;53.444;9.902;2023-04-25T03:23:23;6.00;99.90
3998;DHT22;61314;53.444;9.902;2023-04-25T03:25:50;6.00;99.90
3998;DHT22;61314;53.444;9.902;2023-04-25T03:28:16;6.00;99.90
3998;DHT22;61314;53.444;9.902;2023-04-25T03:30:43;5.90;99.90
3998;DHT22;61314;53.444;9.902;2023-04-25T03:38:04;6.10;99.90
3998;DHT22;61314;53.444;9.902;2023-04-25T03:40:30;5.80;99.90
3998;DHT22;61314;53.444;9.902;2023-04-25T03:45:24;5.70;99.90
3998;DHT22;61314;53.444;9.902;2023-04-25T03:47:51;5.70;99.90
3998;DHT22;61314;53.444;9.902;2023-04-25T03:50:17;5.70;99.90
3998;DHT22;61314;53.444;9.902;2023-04-25T03:52:44;5.60;99.90
3998;DHT22;61314;53.444;9.902;2023-04-25T03:55:10;5.60;99.90
3998;DHT22;61314;53.444;9.902;2023-04-25T03:57:37;5.60;99.90
3998;DHT22;61314;53.444;9.902;2023-04-25T04:00:04;5.60;99.90
3998;DHT22;61314;53.444;9.902;2023-04-25T04:04:59;5.50;99.90
3998;DHT22;61314;53.444;9.902;2023-04-25T04:07:26;5.50;99.90
3998;DHT22;61314;53.444;9.902;2023-04-25T04:09:53;5.50;99.90
3998;DHT22;61314;53.444;9.902;2023-04-25T04:12:19;5.40;99.90
3998;DHT22;61314;53.444;9.902;2023-04-25T14:56:42;8.30;99.90
3998;DHT22;61314;53.444;9.902;2023-04-25T14:59:08;8.30;99.90
3998;DHT22;61314;53.444;9.902;2023-04-25T15:01:35;8.30;99.90
3998;DHT22;61314;53.444;9.902;2023-04-25T15:04:01;8.30;99.90
3998;DHT22;61314;53.444;9.902;2023-04-25T15:06:30;8.30;99.90
3998;DHT22;61314;53.444;9.902;2023-04-25T15:08:56;8.40;99.90
3998;DHT22;61314;53.444;9.902;2023-04-25T15:11:23;8.40;99.90
3998;DHT22;61314;53.444;9.902;2023-04-25T15:13:50;8.50;99.90
3998;DHT22;61314;53.444;9.902;2023-04-25T15:16:17;8.50;99.90
3998;DHT22;61314;53.444;9.902;2023-04-25T15:18:43;8.50;99.90
3998;DHT22;61314;53.444;9.902;2023-04-25T15:21:10;8.50;99.90
3998;DHT22;61314;53.444;9.902;2023-04-25T15:23:36;8.50;99.90
3998;DHT22;61314;53.444;9.902;2023-04-25T15:26:04;8.40;99.90
3998;DHT22;61314;53.444;9.902;2023-04-25T15:28:30;8.30;99.90
3998;DHT22;61314;53.444;9.902;2023-04-25T15:30:58;8.30;99.90
3998;DHT22;61314;53.444;9.902;2023-04-25T15:33:24;8.20;99.90
3998;DHT22;61314;53.444;9.902;2023-04-25T15:35:51;8.20;99.90
3998;DHT22;61314;53.444;9.902;2023-04-25T15:38:18;8.20;99.90
3998;DHT22;61314;53.444;9.902;2023-04-25T15:40:45;8.20;99.90
3998;DHT22;61314;53.444;9.902;2023-04-25T15:43:12;8.20;99.90
3998;DHT22;61314;53.444;9.902;2023-04-25T15:45:41;8.20;99.90
3998;DHT22;61314;53.444;9.902;2023-04-25T15:48:08;8.20;99.90
3998;DHT22;61314;53.444;9.902;2023-04-25T15:50:35;8.20;99.90
3998;DHT22;61314;53.444;9.902;2023-04-25T15:53:02;8.20;99.90
3998;DHT22;61314;53.444;9.902;2023-04-25T15:55:33;8.20;99.90
3998;DHT22;61314;53.444;9.902;2023-04-25T15:58:00;8.20;99.90
3998;DHT22;61314;53.444;9.902;2023-04-25T16:00:27;8.20;99.90
3998;DHT22;61314;53.444;9.902;2023-04-25T16:02:53;8.10;99.90
3998;DHT22;61314;53.444;9.902;2023-04-25T16:05:20;8.10;99.90
3998;DHT22;61314;53.444;9.902;2023-04-25T16:07:46;8.00;99.90
3998;DHT22;61314;53.444;9.902;2023-04-25T16:10:14;8.00;99.90
3998;DHT22;61314;53.444;9.902;2023-04-25T16:12:45;7.90;99.90
3998;DHT22;61314;53.444;9.902;2023-04-25T16:15:13;7.80;99.90
3998;DHT22;61314;53.444;9.902;2023-04-25T16:17:40;7.70;99.90
3998;DHT22;61314;53.444;9.902;2023-04-25T16:20:07;7.70;99.90
3998;DHT22;61314;53.444;9.902;2023-04-25T16:22:39;7.60;99.90
3998;DHT22;61314;53.444;9.902;2023-04-25T16:25:06;7.60;99.90
3998;DHT22;61314;53.444;9.902;2023-04-25T16:27:34;7.60;99.90
3998;DHT22;61314;53.444;9.902;2023-04-25T16:30:05;7.60;99.90
3998;DHT22;61314;53.444;9.902;2023-04-25T16:32:33;7.50;99.90
3998;DHT22;61314;53.444;9.902;2023-04-25T16:35:00;7.50;99.90
3998;DHT22;61314;53.444;9.902;2023-04-25T16:37:27;7.50;99.90
3998;DHT22;61314;53.444;9.902;2023-04-25T16:39:53;7.50;99.90
3998;DHT22;61314;53.444;9.902;2023-04-25T16:42:20;7.50;99.90
3998;DHT22;61314;53.444;9.902;2023-04-25T16:44:46;7.50;99.90
3998;DHT22;61314;53.444;9.902;2023-04-25T16:47:13;7.60;99.90
3998;DHT22;61314;53.444;9.902;2023-04-25T16:49:45;7.50;99.90
3998;DHT22;61314;53.444;9.902;2023-04-25T16:52:12;7.40;99.90
3998;DHT22;61314;53.444;9.902;2023-04-25T16:54:38;7.30;99.90
3998;DHT22;61314;53.444;9.902;2023-04-25T16:57:05;7.30;99.90
3998;DHT22;61314;53.444;9.902;2023-04-25T16:59:36;7.30;99.90
3998;DHT22;61314;53.444;9.902;2023-04-25T17:04:30;7.20;99.90
3998;DHT22;61314;53.444;9.902;2023-04-25T17:06:57;7.30;99.90
3998;DHT22;61314;53.444;9.902;2023-04-25T17:09:24;7.30;99.90
3998;DHT22;61314;53.444;9.902;2023-04-25T17:11:52;7.30;99.90
3998;DHT22;61314;53.444;9.902;2023-04-25T17:14:19;7.20;99.90
3998;DHT22;61314;53.444;9.902;2023-04-25T17:16:45;7.20;99.90
3998;DHT22;61314;53.444;9.902;2023-04-25T17:19:12;7.20;99.90
3998;DHT22;61314;53.444;9.902;2023-04-25T17:21:39;7.20;99.90
3998;DHT22;61314;53.444;9.902;2023-04-25T17:24:07;7.30;99.90
3998;DHT22;61314;53.444;9.902;2023-04-25T17:26:38;7.30;99.90
3998;DHT22;61314;53.444;9.902;2023-04-25T17:29:04;7.20;99.90
3998;DHT22;61314;53.444;9.902;2023-04-25T17:31:31;7.30;99.90
3998;DHT22;61314;53.444;9.902;2023-04-25T17:33:58;7.30;99.90
3998;DHT22;61314;53.444;9.902;2023-04-25T17:36:25;7.20;99.90
3998;DHT22;61314;53.444;9.902;2023-04-25T17:38:51;7.20;99.90
3998;DHT22;61314;53.444;9.902;2023-04-25T17:41:18;7.20;99.90
3998;DHT22;61314;53.444;9.902;2023-04-25T17:43:46;7.20;99.90
3998;DHT22;61314;53.444;9.902;2023-04-25T17:46:13;7.20;99.90
3998;DHT22;61314;53.444;9.902;2023-04-25T17:53:34;7.00;99.90
3998;DHT22;61314;53.444;9.902;2023-04-25T17:58:32;7.00;99.90
3998;DHT22;61314;53.444;9.902;2023-04-25T18:00:59;7.00;99.90
3998;DHT22;61314;53.444;9.902;2023-04-25T18:03:25;6.90;99.90
